Time;durP1;ratioP1;P1;durP2;ratioP2;P2;SDS_P1;SDS_P2;PMS_P1;PMS_P2;Temp;Humidity;BMP_temperature;BMP_pressure;BME280_temperature;BME280_humidity;BME280_pressure;Samples;Min_cycle;Max_cycle;Signal;HPM_P1;HPM_P2
2022/01/13 00:01:55;;;;;;;115.73;39.23;;;3.50;99.90;;;;;;5048743;28;20497;-74
2022/01/13 00:04:21;;;;;;;139.73;43.43;;;3.50;99.90;;;;;;5048415;28;20025;-74
2022/01/13 00:06:47;;;;;;;123.73;41.03;;;3.60;99.90;;;;;;5043671;28;20084;-74
2022/01/13 00:09:14;;;;;;;127.63;42.57;;;3.50;99.90;;;;;;5028675;28;20022;-74
2022/01/13 00:11:40;;;;;;;116.43;39.63;;;3.30;99.90;;;;;;5028314;28;20036;-74
2022/01/13 00:14:24;;;;;;;123.97;40.97;;;3.40;99.90;;;;;;5026747;28;20612;-74
2022/01/13 00:19:35;;;;;;;169.13;41.43;;;3.40;99.90;;;;;;5027995;28;20120;-74
2022/01/13 00:22:17;;;;;;;121.43;37.40;;;3.30;99.90;;;;;;5028495;28;20502;-74
2022/01/13 00:24:45;;;;;;;127.07;38.93;;;3.30;99.90;;;;;;5037920;28;20406;-74
2022/01/13 00:27:13;;;;;;;111.33;38.93;;;;;;;;;;5047988;28;20025;-74
2022/01/13 00:29:42;;;;;;;136.97;43.57;;;3.40;99.90;;;;;;5047937;28;20482;-73
2022/01/13 00:32:09;;;;;;;131.30;40.47;;;3.50;99.90;;;;;;5048198;28;20078;-74
2022/01/13 00:34:35;;;;;;;146.10;44.53;;;;;;;;;;5048004;28;20302;-73
2022/01/13 00:37:01;;;;;;;179.87;46.23;;;3.50;99.90;;;;;;5048303;28;20485;-73
2022/01/13 00:39:27;;;;;;;178.27;47.90;;;3.80;99.90;;;;;;5041553;28;20048;-73
2022/01/13 00:41:53;;;;;;;147.13;47.40;;;;;;;;;;5031595;28;20046;-73
2022/01/13 00:44:19;;;;;;;136.40;41.93;;;3.50;99.90;;;;;;5031803;28;20425;-75
2022/01/13 00:46:54;;;;;;;158.30;44.10;;;3.60;99.90;;;;;;5031722;28;20485;-73
2022/01/13 00:49:20;;;;;;;162.07;43.00;;;;;;;;;;5031709;28;20477;-73
2022/01/13 00:51:46;;;;;;;162.27;44.00;;;3.40;99.90;;;;;;5030250;28;20033;-73
2022/01/13 00:54:12;;;;;;;148.73;44.70;;;3.50;99.90;;;;;;5030363;28;20057;-73
2022/01/13 00:56:38;;;;;;;151.40;47.07;;;3.50;99.90;;;;;;5029707;28;20108;-73
2022/01/13 00:59:10;;;;;;;122.13;44.87;;;3.30;99.90;;;;;;5039639;28;20371;-73
2022/01/13 01:01:39;;;;;;;150.33;46.63;;;3.40;99.90;;;;;;5051038;28;20031;-73
2022/01/13 01:04:05;;;;;;;145.33;43.30;;;3.30;99.90;;;;;;5051361;28;20028;-73
2022/01/13 01:06:32;;;;;;;131.97;43.37;;;3.30;99.90;;;;;;5051172;28;20394;-75
2022/01/13 01:08:58;;;;;;;157.77;40.80;;;;;;;;;;5033476;28;20044;-73
2022/01/13 01:11:26;;;;;;;120.10;41.00;;;;;;;;;;5050210;28;20103;-74
2022/01/13 01:13:52;;;;;;;168.43;48.20;;;;;;;;;;5045282;28;20029;-74
2022/01/13 01:16:18;;;;;;;124.07;42.37;;;3.40;99.90;;;;;;5031398;28;20033;-73
2022/01/13 01:21:34;;;;;;;148.87;43.03;;;3.30;99.90;;;;;;5031142;28;20053;-73
2022/01/13 01:31:46;;;;;;;131.23;40.07;;;3.40;99.90;;;;;;5043580;28;20037;-73
2022/01/13 01:36:38;;;;;;;146.93;41.07;;;;;;;;;;5050294;28;20112;-74
2022/01/13 01:39:06;;;;;;;121.80;39.33;;;3.40;99.90;;;;;;5050450;28;20048;-74
2022/01/13 01:41:35;;;;;;;133.00;41.07;;;3.50;99.90;;;;;;5050376;28;20032;-74
2022/01/13 01:44:09;;;;;;;126.67;36.23;;;3.30;99.90;;;;;;5050747;28;20075;-74
2022/01/13 01:46:39;;;;;;;147.63;40.67;;;4.40;99.90;;;;;;5041559;28;20021;-74
2022/01/13 01:49:15;;;;;;;130.57;38.20;;;3.40;99.90;;;;;;5030516;28;20045;-74
2022/01/13 01:51:42;;;;;;;157.50;42.60;;;3.50;99.90;;;;;;5028246;28;20538;-74
2022/01/13 01:54:07;;;;;;;131.00;37.63;;;3.60;99.90;;;;;;5030064;28;20037;-73
2022/01/13 01:56:33;;;;;;;134.60;41.07;;;3.50;99.90;;;;;;5030280;28;20541;-74
2022/01/13 01:59:02;;;;;;;188.30;44.80;;;3.40;99.90;;;;;;5030635;28;20028;-74
2022/01/13 02:01:28;;;;;;;191.63;43.93;;;3.40;99.90;;;;;;5029919;28;20516;-74
2022/01/13 02:03:54;;;;;;;124.10;39.00;;;;;;;;;;5030669;28;20423;-74
2022/01/13 02:06:20;;;;;;;101.83;37.63;;;;;;;;;;5030202;28;20064;-74
2022/01/13 02:08:46;;;;;;;240.77;50.07;;;;;;;;;;5029734;28;20057;-74
2022/01/13 02:11:12;;;;;;;138.83;40.53;;;3.30;99.90;;;;;;5030414;28;20064;-74
2022/01/13 02:13:46;;;;;;;130.83;40.10;;;;;;;;;;5029927;28;20083;-74
2022/01/13 02:16:17;;;;;;;125.75;40.45;;;3.40;99.90;;;;;;5047841;28;20132;-74
2022/01/13 02:18:42;;;;;;;158.60;40.03;;;3.40;99.90;;;;;;5031855;28;20060;-74
2022/01/13 02:21:10;;;;;;;116.33;35.50;;;3.50;99.90;;;;;;5028537;28;20085;-74
2022/01/13 02:23:38;;;;;;;234.33;47.80;;;3.40;99.90;;;;;;5029164;28;20064;-74
2022/01/13 02:26:09;;;;;;;150.60;42.10;;;3.60;99.90;;;;;;5030085;28;20125;-74
2022/01/13 02:28:35;;;;;;;163.80;38.67;;;;;;;;;;5028288;28;20026;-74
2022/01/13 02:31:01;;;;;;;81.57;30.17;;;;;;;;;;5013821;28;20040;-74
2022/01/13 02:33:26;;;;;;;84.03;29.17;;;3.40;99.90;;;;;;5009697;28;20037;-74
2022/01/13 02:35:52;;;;;;;108.23;32.67;;;3.40;99.90;;;;;;5010417;28;20030;-74
2022/01/13 02:38:18;;;;;;;90.77;28.50;;;;;;;;;;5009780;28;20519;-74
2022/01/13 02:40:44;;;;;;;122.47;32.07;;;;;;;;;;5008282;28;20029;-73
2022/01/13 02:43:10;;;;;;;129.50;31.93;;;3.40;99.90;;;;;;5008581;28;20663;-74
2022/01/13 02:45:39;;;;;;;125.93;35.97;;;;;;;;;;5009505;28;20029;-74
2022/01/13 02:50:36;;;;;;;249.40;48.47;;;;;;;;;;5007853;28;20029;-73
2022/01/13 02:53:03;;;;;;;75.60;28.90;;;;;;;;;;5016628;28;20033;-74
2022/01/13 02:55:28;;;;;;;111.87;32.30;;;3.50;99.90;;;;;;5025663;28;20478;-74
2022/01/13 02:57:54;;;;;;;102.40;28.93;;;;;;;;;;5027926;28;20037;-74
2022/01/13 03:00:20;;;;;;;57.67;22.37;;;;;;;;;;5028936;28;20502;-74
2022/01/13 03:02:47;;;;;;;73.93;26.70;;;3.40;99.90;;;;;;5028836;28;20042;-74
2022/01/13 03:05:14;;;;;;;85.77;28.67;;;3.50;99.90;;;;;;5029378;28;20018;-74
2022/01/13 03:07:40;;;;;;;97.40;28.00;;;3.70;99.90;;;;;;5022981;28;20387;-74
2022/01/13 03:10:07;;;;;;;106.63;28.90;;;3.60;99.90;;;;;;5008695;28;20030;-74
2022/01/13 03:12:36;;;;;;;79.50;27.90;;;3.60;99.90;;;;;;5009303;28;20029;-74
2022/01/13 03:15:02;;;;;;;76.23;24.70;;;3.50;99.90;;;;;;5009574;28;20405;-74
2022/01/13 03:17:27;;;;;;;102.80;28.80;;;3.70;99.90;;;;;;5009177;28;20112;-74
2022/01/13 03:19:53;;;;;;;124.77;30.80;;;3.60;99.90;;;;;;5010261;28;20030;-73
2022/01/13 03:22:19;;;;;;;71.90;25.93;;;;;;;;;;5027250;28;20490;-74
2022/01/13 03:24:45;;;;;;;113.07;28.33;;;;;;;;;;5028684;28;20072;-74
2022/01/13 03:27:18;;;;;;;75.93;27.97;;;;;;;;;;5028825;28;20029;-74
2022/01/13 03:29:44;;;;;;;93.10;27.00;;;3.20;99.90;;;;;;5028872;28;20021;-74
2022/01/13 03:32:10;;;;;;;82.40;26.83;;;3.70;99.90;;;;;;5028934;28;20032;-73
2022/01/13 03:34:36;;;;;;;84.37;25.70;;;3.50;99.90;;;;;;5028613;28;20096;-74
2022/01/13 03:37:01;;;;;;;85.17;25.23;;;3.70;99.90;;;;;;5028677;28;20117;-74
2022/01/13 03:39:28;;;;;;;69.73;23.53;;;3.60;99.90;;;;;;5028377;28;20037;-73
2022/01/13 03:41:54;;;;;;;57.70;24.00;;;3.40;99.90;;;;;;5027839;28;20037;-74
2022/01/13 03:44:28;;;;;;;62.30;24.23;;;;;;;;;;5028495;28;20017;-74
2022/01/13 03:46:56;;;;;;;150.27;32.27;;;3.50;99.90;;;;;;5028917;28;20044;-74
2022/01/13 03:49:22;;;;;;;85.20;26.67;;;;;;;;;;5027275;28;20387;-74
2022/01/13 03:52:22;;;;;;;73.70;26.63;;;3.50;99.90;;;;;;5028535;28;20033;-74
2022/01/13 03:55:25;;;;;;;164.43;34.77;;;3.70;99.90;;;;;;5028941;28;20025;-73
2022/01/13 03:58:21;;;;;;;85.83;27.43;;;3.50;99.90;;;;;;5028895;28;20029;-74
2022/01/13 04:01:07;;;;;;;79.20;26.80;;;3.40;99.90;;;;;;5028864;28;20018;-74
2022/01/13 04:03:32;;;;;;;96.40;29.13;;;3.40;99.90;;;;;;5028086;28;20046;-74
2022/01/13 04:06:22;;;;;;;80.83;26.23;;;3.50;99.90;;;;;;5026983;28;20117;-74
2022/01/13 04:08:49;;;;;;;92.00;27.77;;;3.40;99.90;;;;;;5018090;28;20029;-74
2022/01/13 04:11:33;;;;;;;74.20;27.23;;;3.60;99.90;;;;;;5028764;28;20108;-74
2022/01/13 04:14:04;;;;;;;86.50;24.13;;;3.40;99.90;;;;;;5027635;28;20033;-74
2022/01/13 04:16:34;;;;;;;73.90;25.33;;;3.90;99.90;;;;;;5030699;28;20029;-74
2022/01/13 04:19:04;;;;;;;84.00;26.73;;;3.40;99.90;;;;;;5031268;28;20021;-74
2022/01/13 04:21:34;;;;;;;61.23;22.10;;;3.50;99.90;;;;;;5039745;28;20045;-74
2022/01/13 04:24:03;;;;;;;107.10;29.83;;;3.40;99.90;;;;;;5032712;28;20021;-74
2022/01/13 04:26:30;;;;;;;146.17;31.77;;;;;;;;;;5031836;28;20037;-74
2022/01/13 04:31:36;;;;;;;98.83;28.93;;;3.50;99.90;;;;;;5031754;28;20064;-74
2022/01/13 04:34:02;;;;;;;119.57;30.03;;;3.40;99.90;;;;;;5031750;28;20041;-74
2022/01/13 04:36:28;;;;;;;120.33;28.57;;;3.30;99.90;;;;;;5031728;28;20033;-74
2022/01/13 04:38:53;;;;;;;85.97;23.57;;;3.40;99.90;;;;;;5047529;28;20117;-74
2022/01/13 04:41:30;;;;;;;80.23;23.60;;;;;;;;;;5051965;28;20382;-74
2022/01/13 04:43:56;;;;;;;103.90;27.87;;;3.30;99.90;;;;;;5052024;28;20039;-74
2022/01/13 04:46:23;;;;;;;86.73;26.20;;;3.40;99.90;;;;;;5029934;28;20124;-74
2022/01/13 04:48:48;;;;;;;83.83;26.17;;;3.40;99.90;;;;;;5031697;28;20111;-74
2022/01/13 04:51:14;;;;;;;104.63;26.93;;;3.40;99.90;;;;;;5031839;28;20072;-74
2022/01/13 04:53:40;;;;;;;84.80;24.53;;;;;;;;;;5043825;28;20039;-74
2022/01/13 04:56:11;;;;;;;113.07;30.67;;;;;;;;;;5051537;28;20470;-74
2022/01/13 04:58:37;;;;;;;58.80;21.83;;;3.20;99.90;;;;;;5051241;28;20036;-74
2022/01/13 05:01:04;;;;;;;86.90;25.77;;;3.30;99.90;;;;;;5051649;28;20029;-74
2022/01/13 05:03:30;;;;;;;92.37;26.20;;;;;;;;;;5050524;28;20043;-74
2022/01/13 05:05:55;;;;;;;79.83;23.77;;;3.20;99.90;;;;;;5051219;28;20033;-74
2022/01/13 05:08:21;;;;;;;110.30;28.60;;;;;;;;;;5033130;28;20028;-74
2022/01/13 05:10:47;;;;;;;60.27;21.60;;;3.20;99.90;;;;;;5051350;28;20029;-73
2022/01/13 05:13:13;;;;;;;112.50;26.07;;;;;;;;;;5051107;28;20033;-74
2022/01/13 05:15:41;;;;;;;80.97;25.60;;;3.30;99.90;;;;;;5051009;28;20116;-74
2022/01/13 05:18:26;;;;;;;90.23;25.90;;;2.10;99.90;;;;;;5050686;28;20032;-73
2022/01/13 05:21:07;;;;;;;85.37;26.30;;;3.20;99.90;;;;;;5033054;28;20053;-74
2022/01/13 05:23:33;;;;;;;90.50;26.77;;;;;;;;;;5030590;28;20040;-73
2022/01/13 05:25:59;;;;;;;66.90;22.60;;;3.30;99.90;;;;;;5031215;28;20457;-73
2022/01/13 05:28:25;;;;;;;59.77;20.47;;;3.20;99.90;;;;;;5030758;28;20120;-73
2022/01/13 05:30:51;;;;;;;86.80;25.93;;;;;;;;;;5031302;28;20029;-73
2022/01/13 05:33:16;;;;;;;65.77;21.70;;;3.30;99.90;;;;;;5030723;28;20367;-73
2022/01/13 05:35:42;;;;;;;74.90;25.07;;;;;;;;;;5040091;28;20040;-74
2022/01/13 05:38:09;;;;;;;98.80;25.17;;;;;;;;;;5049961;28;20784;-73
2022/01/13 05:40:36;;;;;;;80.30;23.80;;;3.40;99.90;;;;;;5030421;28;20021;-73
2022/01/13 05:43:03;;;;;;;63.80;19.87;;;3.10;99.90;;;;;;5012865;28;20041;-73
2022/01/13 05:45:29;;;;;;;50.37;18.47;;;3.40;99.90;;;;;;5030356;28;20026;-73
2022/01/13 05:47:57;;;;;;;91.43;24.27;;;3.30;99.90;;;;;;5030604;28;20213;-73
2022/01/13 05:50:23;;;;;;;94.00;25.60;;;3.20;99.90;;;;;;5031462;28;20026;-73
2022/01/13 05:52:49;;;;;;;74.10;23.27;;;;;;;;;;5050446;28;20474;-73
2022/01/13 05:55:15;;;;;;;75.97;24.40;;;3.20;99.90;;;;;;5050129;28;20378;-73
2022/01/13 05:57:41;;;;;;;82.87;25.43;;;3.40;99.90;;;;;;5049470;28;20136;-73
2022/01/13 06:00:10;;;;;;;68.07;21.90;;;3.30;99.90;;;;;;5031813;28;20155;-73
2022/01/13 06:02:36;;;;;;;106.03;25.77;;;;;;;;;;5049726;28;20037;-73
2022/01/13 06:05:02;;;;;;;56.50;20.93;;;;;;;;;;5050014;28;20036;-73
2022/01/13 06:07:28;;;;;;;81.23;24.40;;;3.40;99.90;;;;;;5049526;28;20024;-73
2022/01/13 06:09:54;;;;;;;73.17;22.00;;;;;;;;;;5050198;28;20489;-73
2022/01/13 06:12:31;;;;;;;66.03;23.27;;;;;;;;;;5050136;28;20032;-73
2022/01/13 06:14:56;;;;;;;58.13;21.30;;;3.30;99.90;;;;;;5048790;28;20043;-73
2022/01/13 06:17:22;;;;;;;57.80;20.50;;;;;;;;;;5049309;28;20052;-73
2022/01/13 06:19:47;;;;;;;86.03;23.77;;;3.20;99.90;;;;;;5050495;28;20368;-73
2022/01/13 06:22:13;;;;;;;48.07;20.03;;;3.20;99.90;;;;;;5049723;28;20541;-73
2022/01/13 06:24:38;;;;;;;56.60;19.07;;;3.30;99.90;;;;;;5049579;28;20086;-73
2022/01/13 06:27:04;;;;;;;46.30;17.60;;;3.20;99.90;;;;;;5049819;28;20410;-73
2022/01/13 06:29:29;;;;;;;61.10;20.03;;;3.10;99.90;;;;;;5044807;28;20036;-73
2022/01/13 06:31:56;;;;;;;52.03;20.10;;;3.20;99.90;;;;;;5039786;28;20036;-73
2022/01/13 06:34:22;;;;;;;126.43;29.67;;;;;;;;;;5029300;28;20352;-73
2022/01/13 06:36:47;;;;;;;53.80;18.30;;;3.10;99.90;;;;;;5046335;28;20090;-73
2022/01/13 06:39:13;;;;;;;120.10;26.63;;;3.20;99.90;;;;;;5049553;28;20082;-73
2022/01/13 06:41:40;;;;;;;72.47;23.20;;;3.20;99.90;;;;;;5049293;28;20277;-73
2022/01/13 06:44:06;;;;;;;98.63;26.50;;;3.00;99.90;;;;;;5049095;28;20116;-73
2022/01/13 06:46:32;;;;;;;71.40;22.43;;;;;;;;;;5049277;28;20474;-73
2022/01/13 06:48:59;;;;;;;45.83;18.33;;;;;;;;;;5032540;28;20489;-72
2022/01/13 06:51:24;;;;;;;56.83;20.77;;;;;;;;;;5016145;28;20033;-73
2022/01/13 06:53:50;;;;;;;57.37;20.20;;;3.00;99.90;;;;;;5029903;28;20033;-73
2022/01/13 06:56:15;;;;;;;53.13;21.97;;;2.90;99.90;;;;;;5034712;28;20390;-73
2022/01/13 06:58:45;;;;;;;75.57;22.93;;;;;;;;;;5028772;28;20534;-73
2022/01/13 07:01:10;;;;;;;48.43;19.17;;;3.10;99.90;;;;;;5029468;28;20393;-73
2022/01/13 07:03:36;;;;;;;59.30;22.50;;;;;;;;;;5028893;28;20041;-74
2022/01/13 07:06:02;;;;;;;115.70;27.57;;;;;;;;;;5032534;28;20029;-73
2022/01/13 07:08:28;;;;;;;77.90;23.47;;;3.10;99.90;;;;;;5037621;28;20021;-73
2022/01/13 07:10:54;;;;;;;74.80;22.77;;;3.10;99.90;;;;;;5030409;28;20035;-73
2022/01/13 07:13:20;;;;;;;66.43;22.50;;;;;;;;;;5045879;28;20394;-73
2022/01/13 07:15:46;;;;;;;67.43;21.50;;;2.90;99.90;;;;;;5048554;28;20079;-73
2022/01/13 07:18:12;;;;;;;58.67;22.77;;;;;;;;;;5048743;28;20397;-72
2022/01/13 07:20:40;;;;;;;62.90;21.87;;;3.00;99.90;;;;;;5048225;28;20059;-72
2022/01/13 07:23:06;;;;;;;80.63;23.33;;;;;;;;;;5048573;28;20043;-74
2022/01/13 07:25:31;;;;;;;60.63;21.53;;;3.10;99.90;;;;;;5048283;28;20584;-73
2022/01/13 07:27:58;;;;;;;127.57;28.30;;;;;;;;;;5048800;28;20061;-73
2022/01/13 07:30:23;;;;;;;72.33;22.17;;;3.00;99.90;;;;;;5048080;28;20488;-73
2022/01/13 07:32:49;;;;;;;66.97;19.33;;;;;;;;;;5048671;28;20100;-73
2022/01/13 07:35:15;;;;;;;70.50;21.70;;;3.10;99.90;;;;;;5048013;28;20105;-73
2022/01/13 07:37:42;;;;;;;73.67;23.80;;;;;;;;;;5048354;28;20028;-73
2022/01/13 07:40:13;;;;;;;68.50;21.50;;;3.10;99.90;;;;;;5045913;28;20078;-74
2022/01/13 07:42:42;;;;;;;119.23;25.80;;;3.00;99.90;;;;;;5028024;28;20480;-73
2022/01/13 07:45:09;;;;;;;101.70;25.63;;;3.50;99.90;;;;;;5028594;28;20029;-73
2022/01/13 07:47:34;;;;;;;57.33;21.43;;;3.20;99.90;;;;;;5039871;28;20033;-73
2022/01/13 07:50:00;;;;;;;72.40;21.63;;;2.90;99.90;;;;;;5050558;28;20052;-72
2022/01/13 07:52:27;;;;;;;64.73;22.00;;;;;;;;;;5046793;28;20037;-73
2022/01/13 07:54:53;;;;;;;77.73;22.43;;;3.20;99.90;;;;;;5033048;28;20112;-72
2022/01/13 07:57:18;;;;;;;74.50;21.97;;;3.30;99.90;;;;;;5014393;28;20554;-73
2022/01/13 07:59:44;;;;;;;43.93;17.17;;;3.10;99.90;;;;;;5032285;28;20391;-73
2022/01/13 08:02:10;;;;;;;70.43;23.30;;;;;;;;;;5031852;28;20384;-73
2022/01/13 08:04:35;;;;;;;75.10;21.47;;;3.10;99.90;;;;;;5031654;28;20052;-73
2022/01/13 08:07:01;;;;;;;60.83;22.73;;;;;;;;;;5032202;28;20158;-73
2022/01/13 08:09:27;;;;;;;50.27;17.63;;;3.30;99.90;;;;;;5031161;28;20029;-73
2022/01/13 08:11:53;;;;;;;59.73;17.53;;;;;;;;;;5013650;28;20060;-73
2022/01/13 08:14:19;;;;;;;68.10;20.17;;;;;;;;;;5040855;28;20031;-73
2022/01/13 08:16:45;;;;;;;70.73;22.07;;;;;;;;;;5052159;28;20020;-73
2022/01/13 08:21:56;;;;;;;48.80;19.07;;;3.20;99.90;;;;;;5052388;28;20056;-73
2022/01/13 08:24:22;;;;;;;51.70;18.00;;;;;;;;;;5051611;28;20115;-74
2022/01/13 08:26:47;;;;;;;53.20;18.90;;;3.10;99.90;;;;;;5039246;28;20079;-73
2022/01/13 08:29:13;;;;;;;56.07;19.83;;;;;;;;;;5032101;28;20406;-73
2022/01/13 08:31:39;;;;;;;62.63;19.20;;;3.20;99.90;;;;;;5013892;28;20505;-73
2022/01/13 08:34:06;;;;;;;76.40;22.93;;;;;;;;;;5031926;28;20026;-73
2022/01/13 08:36:32;;;;;;;65.57;20.00;;;;;;;;;;5032885;28;20031;-74
2022/01/13 08:38:58;;;;;;;79.93;21.50;;;;;;;;;;5048265;28;20029;-73
2022/01/13 08:41:23;;;;;;;43.50;18.03;;;;;;;;;;5030529;28;20033;-73
2022/01/13 08:43:52;;;;;;;60.23;20.37;;;;;;;;;;5031536;28;20041;-74
2022/01/13 08:46:18;;;;;;;51.47;17.93;;;3.30;99.90;;;;;;5031560;28;20032;-74
2022/01/13 08:48:44;;;;;;;69.20;23.17;;;;;;;;;;5031070;28;20038;-74
2022/01/13 08:51:09;;;;;;;68.97;21.37;;;3.20;99.90;;;;;;5041459;28;20029;-73
2022/01/13 08:53:37;;;;;;;63.80;20.70;;;3.40;99.90;;;;;;5033525;28;20406;-73
2022/01/13 08:56:03;;;;;;;54.10;18.43;;;3.30;99.90;;;;;;5033022;28;20021;-73
2022/01/13 08:58:28;;;;;;;55.00;20.23;;;3.40;99.90;;;;;;5051034;28;20028;-74
2022/01/13 09:00:56;;;;;;;57.37;19.13;;;;;;;;;;5033064;28;20033;-73
2022/01/13 09:03:22;;;;;;;61.87;20.03;;;;;;;;;;5050204;28;20040;-73
2022/01/13 09:05:47;;;;;;;57.10;18.17;;;3.50;99.90;;;;;;5033154;28;20458;-73
2022/01/13 09:08:13;;;;;;;61.10;18.73;;;;;;;;;;5051149;28;20087;-73
2022/01/13 09:10:40;;;;;;;62.83;18.70;;;3.50;99.90;;;;;;5050370;28;20028;-73
2022/01/13 09:13:14;;;;;;;45.87;18.60;;;3.50;99.90;;;;;;5050319;28;20033;-72
2022/01/13 09:15:44;;;;;;;45.42;17.77;;;3.00;99.90;;;;;;5050276;28;20120;-72
2022/01/13 09:18:15;;;;;;;48.13;17.50;;;3.30;99.90;;;;;;5043288;28;20057;-72
2022/01/13 09:20:41;;;;;;;65.07;19.23;;;3.40;99.90;;;;;;5033005;28;20101;-72
2022/01/13 09:23:08;;;;;;;51.57;18.43;;;3.40;99.90;;;;;;5030423;28;20044;-73
2022/01/13 09:25:34;;;;;;;47.03;16.27;;;3.50;99.90;;;;;;5030372;28;20075;-72
2022/01/13 09:28:00;;;;;;;36.77;15.37;;;;;;;;;;5040541;28;20090;-73
2022/01/13 09:30:26;;;;;;;49.80;17.57;;;;;;;;;;5036653;28;20029;-72
2022/01/13 09:32:52;;;;;;;35.73;15.47;;;3.50;99.90;;;;;;5034326;28;20049;-73
2022/01/13 09:35:18;;;;;;;43.70;16.60;;;3.50;99.90;;;;;;5017046;28;20071;-72
2022/01/13 09:37:43;;;;;;;46.77;17.67;;;3.10;99.90;;;;;;5038067;28;20409;-72
2022/01/13 09:40:10;;;;;;;46.93;17.57;;;3.40;99.90;;;;;;5045392;28;20040;-72
2022/01/13 09:42:39;;;;;;;56.57;21.03;;;3.50;99.90;;;;;;5039982;28;20049;-73
2022/01/13 09:45:06;;;;;;;49.73;17.57;;;3.50;99.90;;;;;;5047892;28;20489;-73
2022/01/13 09:47:32;;;;;;;43.50;17.40;;;3.50;99.90;;;;;;5049481;28;20029;-73
2022/01/13 09:50:04;;;;;;;37.10;15.27;;;;;;;;;;5049489;28;20458;-73
2022/01/13 09:52:29;;;;;;;43.67;17.53;;;3.60;99.90;;;;;;5044589;28;20032;-73
2022/01/13 09:54:55;;;;;;;39.27;17.27;;;3.60;99.90;;;;;;5031627;28;20029;-73
2022/01/13 09:57:21;;;;;;;47.63;17.67;;;3.60;99.90;;;;;;5049186;28;20812;-73
2022/01/13 09:59:47;;;;;;;56.97;18.27;;;3.60;99.90;;;;;;5044091;28;20112;-74
2022/01/13 10:02:12;;;;;;;48.50;18.17;;;3.80;99.90;;;;;;5045357;28;20486;-74
2022/01/13 10:04:45;;;;;;;45.87;18.67;;;3.80;99.90;;;;;;5049215;28;20484;-74
2022/01/13 10:07:13;;;;;;;57.57;19.00;;;;;;;;;;5049174;28;20481;-73
2022/01/13 10:09:56;;;;;;;44.67;16.53;;;3.70;99.90;;;;;;5048887;28;20466;-73
2022/01/13 10:12:35;;;;;;;49.47;17.83;;;3.70;99.90;;;;;;5047418;28;20065;-74
2022/01/13 10:17:29;;;;;;;45.77;16.03;;;3.70;99.90;;;;;;5048220;28;20525;-74
2022/01/13 10:19:57;;;;;;;41.10;16.70;;;;;;;;;;5037543;28;20032;-74
2022/01/13 10:22:30;;;;;;;54.83;18.37;;;3.90;99.90;;;;;;5033532;28;20075;-74
2022/01/13 10:24:58;;;;;;;45.95;19.35;;;;;;;;;;5012091;28;20025;-74
2022/01/13 10:27:35;;;;;;;42.73;17.83;;;3.70;99.90;;;;;;5039691;28;20024;-73
2022/01/13 10:30:15;;;;;;;39.93;17.17;;;4.00;99.90;;;;;;5039080;28;20056;-74
2022/01/13 10:32:44;;;;;;;57.30;20.93;;;3.90;99.90;;;;;;5036923;28;20327;-74
2022/01/13 10:35:10;;;;;;;37.07;17.37;;;;;;;;;;5029260;28;20029;-73
2022/01/13 10:37:38;;;;;;;60.37;20.23;;;3.80;99.90;;;;;;5028319;28;20025;-74
2022/01/13 10:40:26;;;;;;;49.60;19.03;;;3.80;99.90;;;;;;5011268;28;20018;-74
2022/01/13 10:45:22;;;;;;;50.77;19.30;;;;;;;;;;5048867;28;20037;-74
2022/01/13 10:47:53;;;;;;;49.03;20.57;;;3.80;99.90;;;;;;5037532;28;20036;-74
2022/01/13 10:50:20;;;;;;;55.40;22.33;;;3.70;99.90;;;;;;5034836;28;20135;-74
2022/01/13 10:52:46;;;;;;;54.43;20.60;;;;;;;;;;5045620;28;20477;-73
2022/01/13 10:55:18;;;;;;;43.93;19.53;;;3.90;99.90;;;;;;5048777;28;20032;-74
2022/01/13 10:57:44;;;;;;;54.63;20.00;;;3.80;99.90;;;;;;5042046;28;20710;-74
2022/01/13 11:00:24;;;;;;;50.03;19.80;;;3.80;99.90;;;;;;5035625;28;20115;-73
2022/01/13 11:03:17;;;;;;;53.27;19.10;;;3.60;99.90;;;;;;5038431;28;20033;-74
2022/01/13 11:05:46;;;;;;;40.33;17.93;;;3.90;99.90;;;;;;5021852;28;20180;-73
2022/01/13 11:08:40;;;;;;;54.50;21.37;;;4.00;99.90;;;;;;5039971;28;20390;-73
2022/01/13 11:11:06;;;;;;;50.63;19.70;;;;;;;;;;5037822;28;20026;-72
2022/01/13 11:13:39;;;;;;;52.70;19.90;;;3.80;99.90;;;;;;5038723;28;20037;-73
2022/01/13 11:16:05;;;;;;;53.13;20.70;;;;;;;;;;5047926;28;20050;-74
2022/01/13 11:18:33;;;;;;;46.17;18.70;;;3.80;99.90;;;;;;5021913;28;20033;-72
2022/01/13 11:21:01;;;;;;;65.33;21.10;;;3.40;99.90;;;;;;5026933;28;20046;-72
2022/01/13 11:23:26;;;;;;;47.77;20.67;;;4.20;99.90;;;;;;5027852;28;20038;-73
2022/01/13 11:25:55;;;;;;;46.33;20.63;;;3.90;99.90;;;;;;5028998;28;20036;-73
2022/01/13 11:28:21;;;;;;;72.67;23.20;;;;;;;;;;5028618;28;20554;-73
2022/01/13 11:30:51;;;;;;;83.33;26.30;;;4.10;99.90;;;;;;5028781;28;20091;-73
2022/01/13 11:33:22;;;;;;;68.33;22.77;;;3.90;99.90;;;;;;5028780;28;20021;-73
2022/01/13 11:35:55;;;;;;;51.27;21.70;;;4.20;99.90;;;;;;5028096;28;20572;-72
2022/01/13 11:38:22;;;;;;;49.55;20.67;;;4.10;99.90;;;;;;5010584;28;20034;-74
2022/01/13 11:40:50;;;;;;;47.30;19.33;;;4.10;99.90;;;;;;5027466;28;20124;-73
2022/01/13 11:43:22;;;;;;;58.83;22.73;;;4.00;99.90;;;;;;5028788;28;20045;-73
2022/01/13 11:45:48;;;;;;;50.03;20.83;;;4.20;99.90;;;;;;5042179;28;20079;-73
2022/01/13 11:48:26;;;;;;;44.20;19.80;;;4.30;99.90;;;;;;5047753;28;20033;-73
2022/01/13 11:51:13;;;;;;;52.33;19.97;;;4.20;99.90;;;;;;5048724;28;20025;-73
2022/01/13 11:53:41;;;;;;;48.47;21.23;;;4.00;99.90;;;;;;5047964;28;20028;-73
2022/01/13 11:56:08;;;;;;;68.10;23.80;;;4.00;99.90;;;;;;5030511;28;20025;-73
2022/01/13 11:58:45;;;;;;;51.40;20.60;;;4.20;99.90;;;;;;5047409;28;20099;-74
2022/01/13 12:01:32;;;;;;;58.77;21.30;;;4.20;99.90;;;;;;5048138;28;20489;-74
2022/01/13 12:04:00;;;;;;;55.73;21.93;;;4.40;99.90;;;;;;5048038;28;20102;-73
2022/01/13 12:06:36;;;;;;;64.80;21.37;;;4.00;99.90;;;;;;5047415;28;20048;-74
2022/01/13 12:09:12;;;;;;;53.40;19.73;;;4.10;99.90;;;;;;5029999;28;20036;-73
2022/01/13 12:11:46;;;;;;;40.10;18.70;;;4.10;99.90;;;;;;5047208;28;20021;-73
2022/01/13 12:14:29;;;;;;;54.00;20.92;;;3.90;99.90;;;;;;5036591;28;20100;-73
2022/01/13 12:17:08;;;;;;;45.97;20.92;;;3.90;99.90;;;;;;5045214;28;20037;-73
2022/01/13 12:19:38;;;;;;;47.53;20.87;;;4.00;99.90;;;;;;5033502;28;20491;-73
2022/01/13 12:22:24;;;;;;;47.23;20.70;;;4.00;99.90;;;;;;5037540;28;20528;-73
2022/01/13 12:24:54;;;;;;;55.27;20.83;;;4.00;99.90;;;;;;5030508;28;20029;-73
2022/01/13 12:27:44;;;;;;;52.67;19.33;;;3.90;99.90;;;;;;5047761;28;20155;-74
2022/01/13 12:30:30;;;;;;;47.57;19.73;;;4.00;99.90;;;;;;5047406;28;20033;-72
2022/01/13 12:32:58;;;;;;;54.43;20.83;;;4.00;99.90;;;;;;5038895;28;20056;-73
2022/01/13 12:35:42;;;;;;;48.67;20.07;;;3.90;99.90;;;;;;5028552;28;20073;-73
2022/01/13 12:38:11;;;;;;;49.20;19.90;;;3.80;99.90;;;;;;5047109;28;20025;-73
2022/01/13 12:40:54;;;;;;;44.73;19.53;;;3.90;99.90;;;;;;5051564;28;20048;-73
2022/01/13 12:43:48;;;;;;;54.43;21.87;;;;;;;;;;5047989;28;20037;-73
2022/01/13 12:46:16;;;;;;;49.97;19.40;;;3.80;99.90;;;;;;5039655;28;20033;-73
2022/01/13 12:48:48;;;;;;;66.47;21.40;;;4.00;99.90;;;;;;5041890;28;20090;-71
2022/01/13 12:51:15;;;;;;;70.23;25.53;;;3.90;99.90;;;;;;5044071;28;20035;-73
2022/01/13 12:53:42;;;;;;;56.70;22.47;;;4.00;99.90;;;;;;5042054;28;20562;-73
2022/01/13 12:56:10;;;;;;;61.30;20.93;;;3.90;99.90;;;;;;5044516;28;20040;-73
2022/01/13 12:58:38;;;;;;;64.33;22.83;;;3.60;99.90;;;;;;5037362;28;20088;-73
2022/01/13 13:01:15;;;;;;;69.07;22.60;;;3.90;99.90;;;;;;5038164;28;20025;-73
2022/01/13 13:03:41;;;;;;;55.97;21.17;;;4.10;99.90;;;;;;5026628;28;20147;-73
2022/01/13 13:06:16;;;;;;;46.90;19.83;;;2.80;99.90;;;;;;5041679;28;20022;-73
2022/01/13 13:08:43;;;;;;;64.63;22.00;;;4.00;99.90;;;;;;5017470;28;20029;-73
2022/01/13 13:11:09;;;;;;;53.53;19.97;;;4.00;99.90;;;;;;5047408;28;20132;-73
2022/01/13 13:13:44;;;;;;;50.90;20.77;;;4.00;99.90;;;;;;5039679;28;20109;-73
2022/01/13 13:16:11;;;;;;;51.97;20.53;;;4.00;99.90;;;;;;5041731;28;20022;-73
2022/01/13 13:18:38;;;;;;;57.17;22.17;;;4.00;99.90;;;;;;5038041;28;20120;-72
2022/01/13 13:21:05;;;;;;;59.50;24.00;;;4.00;99.90;;;;;;5043807;28;20124;-73
2022/01/13 13:23:33;;;;;;;64.50;24.70;;;4.00;99.90;;;;;;5033087;28;20390;-73
2022/01/13 13:26:14;;;;;;;85.87;25.60;;;4.00;99.90;;;;;;5032288;28;20026;-73
2022/01/13 13:28:45;;;;;;;72.13;21.50;;;4.00;99.90;;;;;;5045810;28;20109;-73
2022/01/13 13:31:13;;;;;;;54.50;20.37;;;4.20;99.90;;;;;;5029903;28;20028;-73
2022/01/13 13:33:56;;;;;;;61.93;22.83;;;3.80;99.90;;;;;;5026039;28;20133;-72
2022/01/13 13:36:26;;;;;;;64.47;23.27;;;4.00;99.90;;;;;;5027641;28;20205;-72